Sheridan, WY

11:47 PM MDT on September 17, 2014 (GMT -0600)
Sheridan County | Change Station
CLOSE
Current Station
Airport
Location: Sheridan,
Elevation: 3967 ft
Nearby Weather Stations

Elev 3967 ft 44.76 °N, 106.97 °W | Updated 54 minutes ago

Partly Cloudy
Partly Cloudy
60 °F
Feels Like 60 °F
N
4
Wind Variable Wind from SSE

Today
High -- | Low -- °F
--% Chance of Precip.
Yesterday
High -- | Low -- °F
Precip. -- in
6:49 AM 7:14 PM
Waning Crescent, 30% visible
Pressure 29.83 in
Visibility 10.0 miles
Clouds Clear
Dew Point 47 °F
Humidity 62%
Rainfall 0.00 in
Snow Depth 0 in , 1 in , 0 in
UV 0 out of 12
Pollen 5.80 out of 12
Air Quality Not available.
Flu Activity Not available.
METAR KSHR 180453Z AUTO 15003KT 10SM CLR 16/08 A2993 RMK AO2 SLP099 T01560083

More Conditions Fewer Conditions

Pressure 29.83 in
Visibility 10.0 miles
Clouds Clear
Dew Point 47 °F
Humidity 62%
Rainfall 0.00 in
Snow Depth 0 in , 1 in , 0 in
UV 0 out of 12
Pollen 5.80 out of 12
Air Quality Not available.
Flu Activity Not available.
METAR KSHR 180453Z AUTO 15003KT 10SM CLR 16/08 A2993 RMK AO2 SLP099 T01560083

More Conditions Fewer Conditions

10-Day Weather Forecast

Almanac

Astronomy

Sep. 17, 2014 Rise Set
Actual Time 6:49 AM MDT 7:14 PM MDT
Civil Twilight 6:19 AM MDT 7:43 PM MDT
Nautical Twilight 5:45 AM MDT 8:18 PM MDT
Astronomical Twilight 5:09 AM MDT 8:54 PM MDT
Moon 12:40 AM MDT (9/17) 3:36 PM MDT (9/17)
Length of Visible Light 13h 24m
Length of Day
12h 25m
Tomorrow will be 3m 5s shorter.
Waning Crescent, 30% of the Moon is Illuminated
Sep 18
Waning Crescent
Sep 24
New
Oct 1
First Quarter
Oct 8
Full
Oct 15
Last Quarter

Yesterday's Extremes

State Highs State Lows

Community

WunderPhotos

Upload Photos

1,754,292 photos uploaded!

Nearby

Snow Depth

Station Depth Elevation
Phillips Bench 0 in 8200 ft
Gros Ventre Summit 1 in 8750 ft
Reno Hill 0 in 8500 ft
Little Warm 0 in 9370 ft
Willow Creek 0 in 8450 ft

Earthquake Activity

City Distance Mag. Time & Date
No recent earthquake activity has been reported nearby.
Minimum magnitude displayed is 2.5.

Coastal Water Temperatures

Place Temperature
No Stations Reporting

Nearby Weather Stations